sensor_id;sensor_type;location;lat;lon;timestamp;P1;durP1;ratioP1;P2;durP2;ratioP2
16284;SDS011;8250;52.426;9.450;2022-07-01T00:00:18;5.90;;;5.40;;
16284;SDS011;8250;52.426;9.450;2022-07-01T00:02:46;5.78;;;5.22;;
16284;SDS011;8250;52.426;9.450;2022-07-01T00:05:13;5.78;;;4.80;;
16284;SDS011;8250;52.426;9.450;2022-07-01T00:07:40;6.45;;;4.68;;
16284;SDS011;8250;52.426;9.450;2022-07-01T00:10:07;8.45;;;6.63;;
16284;SDS011;8250;52.426;9.450;2022-07-01T00:12:35;6.05;;;5.45;;
16284;SDS011;8250;52.426;9.450;2022-07-01T00:15:02;4.82;;;4.43;;
16284;SDS011;8250;52.426;9.450;2022-07-01T00:17:29;5.88;;;4.57;;
16284;SDS011;8250;52.426;9.450;2022-07-01T00:19:58;5.22;;;4.60;;
16284;SDS011;8250;52.426;9.450;2022-07-01T00:22:25;4.65;;;4.25;;
16284;SDS011;8250;52.426;9.450;2022-07-01T00:24:53;5.18;;;4.68;;
16284;SDS011;8250;52.426;9.450;2022-07-01T00:27:20;7.05;;;4.60;;
16284;SDS011;8250;52.426;9.450;2022-07-01T00:29:47;4.72;;;4.30;;
16284;SDS011;8250;52.426;9.450;2022-07-01T00:32:14;4.97;;;4.47;;
16284;SDS011;8250;52.426;9.450;2022-07-01T00:34:41;6.80;;;4.32;;
16284;SDS011;8250;52.426;9.450;2022-07-01T00:37:09;5.97;;;5.15;;
16284;SDS011;8250;52.426;9.450;2022-07-01T00:39:36;7.18;;;5.65;;
16284;SDS011;8250;52.426;9.450;2022-07-01T00:42:03;5.65;;;5.03;;
16284;SDS011;8250;52.426;9.450;2022-07-01T00:44:31;6.20;;;5.60;;
16284;SDS011;8250;52.426;9.450;2022-07-01T00:46:58;6.35;;;5.78;;
16284;SDS011;8250;52.426;9.450;2022-07-01T00:49:29;5.90;;;5.35;;
16284;SDS011;8250;52.426;9.450;2022-07-01T00:51:56;9.90;;;8.93;;
16284;SDS011;8250;52.426;9.450;2022-07-01T00:54:25;13.30;;;11.90;;
16284;SDS011;8250;52.426;9.450;2022-07-01T00:56:52;13.45;;;12.05;;
16284;SDS011;8250;52.426;9.450;2022-07-01T00:59:20;12.55;;;11.13;;
16284;SDS011;8250;52.426;9.450;2022-07-01T01:01:47;14.10;;;11.77;;
16284;SDS011;8250;52.426;9.450;2022-07-01T01:04:14;14.13;;;11.85;;
16284;SDS011;8250;52.426;9.450;2022-07-01T01:06:41;12.82;;;11.52;;
16284;SDS011;8250;52.426;9.450;2022-07-01T01:09:08;10.35;;;9.10;;
16284;SDS011;8250;52.426;9.450;2022-07-01T01:11:36;11.20;;;9.82;;
16284;SDS011;8250;52.426;9.450;2022-07-01T01:14:03;11.15;;;9.93;;
16284;SDS011;8250;52.426;9.450;2022-07-01T01:16:30;11.80;;;9.38;;
16284;SDS011;8250;52.426;9.450;2022-07-01T01:18:59;9.60;;;7.93;;
16284;SDS011;8250;52.426;9.450;2022-07-01T01:21:28;8.18;;;7.07;;
16284;SDS011;8250;52.426;9.450;2022-07-01T01:23:56;7.97;;;7.18;;
16284;SDS011;8250;52.426;9.450;2022-07-01T01:26:24;8.43;;;7.50;;
16284;SDS011;8250;52.426;9.450;2022-07-01T01:28:52;6.90;;;6.10;;
16284;SDS011;8250;52.426;9.450;2022-07-01T01:31:26;9.48;;;7.72;;
16284;SDS011;8250;52.426;9.450;2022-07-01T01:33:55;9.32;;;8.38;;
16284;SDS011;8250;52.426;9.450;2022-07-01T01:36:22;9.05;;;8.02;;
16284;SDS011;8250;52.426;9.450;2022-07-01T01:38:51;11.15;;;9.95;;
16284;SDS011;8250;52.426;9.450;2022-07-01T01:41:18;12.80;;;10.65;;
16284;SDS011;8250;52.426;9.450;2022-07-01T01:43:45;11.15;;;9.85;;
16284;SDS011;8250;52.426;9.450;2022-07-01T01:46:13;12.18;;;9.95;;
16284;SDS011;8250;52.426;9.450;2022-07-01T01:48:40;10.15;;;8.60;;
16284;SDS011;8250;52.426;9.450;2022-07-01T01:51:07;10.70;;;9.55;;
16284;SDS011;8250;52.426;9.450;2022-07-01T01:53:33;11.60;;;9.68;;
16284;SDS011;8250;52.426;9.450;2022-07-01T01:56:02;9.23;;;7.97;;
16284;SDS011;8250;52.426;9.450;2022-07-01T01:58:29;8.38;;;7.45;;
16284;SDS011;8250;52.426;9.450;2022-07-01T02:00:56;6.95;;;6.07;;
16284;SDS011;8250;52.426;9.450;2022-07-01T02:03:22;10.50;;;5.95;;
16284;SDS011;8250;52.426;9.450;2022-07-01T02:05:49;6.15;;;5.50;;
16284;SDS011;8250;52.426;9.450;2022-07-01T02:08:17;6.10;;;5.50;;
16284;SDS011;8250;52.426;9.450;2022-07-01T02:10:43;5.00;;;4.55;;
16284;SDS011;8250;52.426;9.450;2022-07-01T02:13:12;3.95;;;3.55;;
16284;SDS011;8250;52.426;9.450;2022-07-01T02:15:39;6.72;;;5.20;;
16284;SDS011;8250;52.426;9.450;2022-07-01T02:18:05;4.63;;;4.03;;
16284;SDS011;8250;52.426;9.450;2022-07-01T02:20:32;5.65;;;4.90;;
16284;SDS011;8250;52.426;9.450;2022-07-01T02:23:00;6.25;;;4.53;;
16284;SDS011;8250;52.426;9.450;2022-07-01T02:25:27;5.10;;;4.57;;
16284;SDS011;8250;52.426;9.450;2022-07-01T02:27:53;5.43;;;4.68;;
16284;SDS011;8250;52.426;9.450;2022-07-01T02:30:22;4.03;;;3.63;;
16284;SDS011;8250;52.426;9.450;2022-07-01T02:32:49;4.05;;;3.60;;
16284;SDS011;8250;52.426;9.450;2022-07-01T02:35:15;4.10;;;3.70;;
16284;SDS011;8250;52.426;9.450;2022-07-01T02:37:42;4.53;;;3.80;;
16284;SDS011;8250;52.426;9.450;2022-07-01T02:40:09;3.45;;;3.10;;
16284;SDS011;8250;52.426;9.450;2022-07-01T02:42:38;3.75;;;3.42;;
16284;SDS011;8250;52.426;9.450;2022-07-01T02:45:06;3.95;;;2.97;;
16284;SDS011;8250;52.426;9.450;2022-07-01T02:47:36;4.35;;;3.25;;
16284;SDS011;8250;52.426;9.450;2022-07-01T02:50:04;4.22;;;3.40;;
16284;SDS011;8250;52.426;9.450;2022-07-01T02:52:32;4.10;;;3.08;;
16284;SDS011;8250;52.426;9.450;2022-07-01T02:54:59;3.65;;;3.20;;
16284;SDS011;8250;52.426;9.450;2022-07-01T02:57:26;4.00;;;3.38;;
16284;SDS011;8250;52.426;9.450;2022-07-01T02:59:54;8.25;;;4.20;;
16284;SDS011;8250;52.426;9.450;2022-07-01T03:02:20;6.03;;;4.30;;
16284;SDS011;8250;52.426;9.450;2022-07-01T03:04:50;7.65;;;4.20;;
16284;SDS011;8250;52.426;9.450;2022-07-01T03:07:18;4.93;;;4.07;;
16284;SDS011;8250;52.426;9.450;2022-07-01T03:09:45;4.57;;;3.95;;
16284;SDS011;8250;52.426;9.450;2022-07-01T03:12:13;4.68;;;3.65;;
16284;SDS011;8250;52.426;9.450;2022-07-01T03:14:53;4.25;;;3.83;;
16284;SDS011;8250;52.426;9.450;2022-07-01T03:17:21;4.25;;;3.67;;
16284;SDS011;8250;52.426;9.450;2022-07-01T03:19:50;4.72;;;4.05;;
16284;SDS011;8250;52.426;9.450;2022-07-01T03:22:18;5.50;;;4.10;;
16284;SDS011;8250;52.426;9.450;2022-07-01T03:24:45;6.63;;;4.07;;
16284;SDS011;8250;52.426;9.450;2022-07-01T03:27:12;3.92;;;3.53;;
16284;SDS011;8250;52.426;9.450;2022-07-01T03:29:39;3.85;;;3.50;;
16284;SDS011;8250;52.426;9.450;2022-07-01T03:32:07;3.90;;;3.35;;
16284;SDS011;8250;52.426;9.450;2022-07-01T03:34:35;3.83;;;3.35;;
16284;SDS011;8250;52.426;9.450;2022-07-01T03:37:03;3.97;;;3.15;;
16284;SDS011;8250;52.426;9.450;2022-07-01T03:39:31;4.00;;;3.40;;
16284;SDS011;8250;52.426;9.450;2022-07-01T03:41:58;3.47;;;3.08;;
16284;SDS011;8250;52.426;9.450;2022-07-01T03:44:25;3.03;;;2.60;;
16284;SDS011;8250;52.426;9.450;2022-07-01T03:46:52;3.22;;;2.92;;
16284;SDS011;8250;52.426;9.450;2022-07-01T03:49:19;3.40;;;3.10;;
16284;SDS011;8250;52.426;9.450;2022-07-01T03:51:46;3.65;;;2.65;;
16284;SDS011;8250;52.426;9.450;2022-07-01T03:54:14;3.65;;;3.03;;
16284;SDS011;8250;52.426;9.450;2022-07-01T03:56:55;3.42;;;2.97;;
16284;SDS011;8250;52.426;9.450;2022-07-01T03:59:23;6.97;;;2.95;;
16284;SDS011;8250;52.426;9.450;2022-07-01T04:01:50;3.60;;;3.00;;
16284;SDS011;8250;52.426;9.450;2022-07-01T04:04:17;3.13;;;2.83;;
16284;SDS011;8250;52.426;9.450;2022-07-01T04:06:44;2.70;;;2.30;;
16284;SDS011;8250;52.426;9.450;2022-07-01T04:09:12;3.15;;;2.85;;
16284;SDS011;8250;52.426;9.450;2022-07-01T04:11:43;3.15;;;2.30;;
16284;SDS011;8250;52.426;9.450;2022-07-01T04:14:11;3.60;;;2.38;;
16284;SDS011;8250;52.426;9.450;2022-07-01T04:16:38;2.08;;;1.90;;
16284;SDS011;8250;52.426;9.450;2022-07-01T04:19:06;5.95;;;2.80;;
16284;SDS011;8250;52.426;9.450;2022-07-01T04:21:35;3.03;;;2.72;;
16284;SDS011;8250;52.426;9.450;2022-07-01T04:24:21;2.85;;;2.45;;
16284;SDS011;8250;52.426;9.450;2022-07-01T04:26:49;3.75;;;2.42;;
16284;SDS011;8250;52.426;9.450;2022-07-01T04:29:17;4.03;;;2.50;;
16284;SDS011;8250;52.426;9.450;2022-07-01T04:31:44;2.60;;;2.38;;
16284;SDS011;8250;52.426;9.450;2022-07-01T04:34:12;3.65;;;2.70;;
16284;SDS011;8250;52.426;9.450;2022-07-01T04:36:39;3.17;;;2.88;;
16284;SDS011;8250;52.426;9.450;2022-07-01T04:39:06;3.15;;;2.30;;
16284;SDS011;8250;52.426;9.450;2022-07-01T04:41:34;2.85;;;2.58;;
16284;SDS011;8250;52.426;9.450;2022-07-01T04:44:19;2.90;;;2.60;;
16284;SDS011;8250;52.426;9.450;2022-07-01T04:46:46;3.70;;;2.63;;
16284;SDS011;8250;52.426;9.450;2022-07-01T04:49:13;3.35;;;2.47;;
16284;SDS011;8250;52.426;9.450;2022-07-01T04:51:40;3.85;;;2.22;;
16284;SDS011;8250;52.426;9.450;2022-07-01T04:54:07;2.25;;;2.03;;
16284;SDS011;8250;52.426;9.450;2022-07-01T04:56:36;3.45;;;2.28;;
16284;SDS011;8250;52.426;9.450;2022-07-01T04:59:04;4.28;;;2.97;;
16284;SDS011;8250;52.426;9.450;2022-07-01T05:01:31;4.55;;;3.33;;
16284;SDS011;8250;52.426;9.450;2022-07-01T05:03:59;4.95;;;3.53;;
16284;SDS011;8250;52.426;9.450;2022-07-01T05:06:26;4.60;;;4.20;;
16284;SDS011;8250;52.426;9.450;2022-07-01T05:08:53;5.95;;;5.00;;
16284;SDS011;8250;52.426;9.450;2022-07-01T05:11:20;5.55;;;5.03;;
16284;SDS011;8250;52.426;9.450;2022-07-01T05:13:48;5.35;;;4.85;;
16284;SDS011;8250;52.426;9.450;2022-07-01T05:16:16;6.22;;;4.43;;
16284;SDS011;8250;52.426;9.450;2022-07-01T05:18:44;4.85;;;4.22;;
16284;SDS011;8250;52.426;9.450;2022-07-01T05:21:28;5.70;;;5.00;;
16284;SDS011;8250;52.426;9.450;2022-07-01T05:24:13;5.43;;;4.50;;
16284;SDS011;8250;52.426;9.450;2022-07-01T05:26:40;6.68;;;5.47;;
16284;SDS011;8250;52.426;9.450;2022-07-01T05:29:08;6.85;;;5.60;;
16284;SDS011;8250;52.426;9.450;2022-07-01T05:31:35;8.02;;;5.65;;
16284;SDS011;8250;52.426;9.450;2022-07-01T05:34:02;7.18;;;5.53;;
16284;SDS011;8250;52.426;9.450;2022-07-01T05:36:29;7.28;;;5.70;;
16284;SDS011;8250;52.426;9.450;2022-07-01T05:38:56;5.28;;;4.47;;
16284;SDS011;8250;52.426;9.450;2022-07-01T05:41:23;5.43;;;4.90;;
16284;SDS011;8250;52.426;9.450;2022-07-01T05:43:50;6.15;;;5.22;;
16284;SDS011;8250;52.426;9.450;2022-07-01T05:46:19;7.90;;;4.78;;
16284;SDS011;8250;52.426;9.450;2022-07-01T05:48:45;6.15;;;5.18;;
16284;SDS011;8250;52.426;9.450;2022-07-01T05:51:12;5.45;;;4.20;;
16284;SDS011;8250;52.426;9.450;2022-07-01T05:53:39;5.68;;;4.75;;
16284;SDS011;8250;52.426;9.450;2022-07-01T05:56:08;6.15;;;4.40;;
16284;SDS011;8250;52.426;9.450;2022-07-01T05:58:35;5.28;;;4.63;;
16284;SDS011;8250;52.426;9.450;2022-07-01T06:01:02;5.10;;;4.60;;
16284;SDS011;8250;52.426;9.450;2022-07-01T06:03:31;7.93;;;5.15;;
16284;SDS011;8250;52.426;9.450;2022-07-01T06:05:58;6.03;;;5.00;;
16284;SDS011;8250;52.426;9.450;2022-07-01T06:08:28;6.93;;;5.47;;
16284;SDS011;8250;52.426;9.450;2022-07-01T06:10:55;6.15;;;4.78;;
16284;SDS011;8250;52.426;9.450;2022-07-01T06:13:22;6.43;;;5.30;;
16284;SDS011;8250;52.426;9.450;2022-07-01T06:15:49;7.20;;;5.88;;
16284;SDS011;8250;52.426;9.450;2022-07-01T06:18:16;8.43;;;5.95;;
16284;SDS011;8250;52.426;9.450;2022-07-01T06:20:44;7.30;;;5.57;;
16284;SDS011;8250;52.426;9.450;2022-07-01T06:23:11;8.98;;;5.97;;
16284;SDS011;8250;52.426;9.450;2022-07-01T06:25:38;7.38;;;6.15;;
16284;SDS011;8250;52.426;9.450;2022-07-01T06:28:05;7.20;;;5.65;;
16284;SDS011;8250;52.426;9.450;2022-07-01T06:30:32;9.10;;;6.32;;
16284;SDS011;8250;52.426;9.450;2022-07-01T06:32:59;7.40;;;6.13;;
16284;SDS011;8250;52.426;9.450;2022-07-01T06:35:26;6.30;;;4.80;;
16284;SDS011;8250;52.426;9.450;2022-07-01T06:37:54;8.25;;;5.30;;
16284;SDS011;8250;52.426;9.450;2022-07-01T06:40:21;6.65;;;5.72;;
16284;SDS011;8250;52.426;9.450;2022-07-01T06:42:48;6.13;;;5.10;;
16284;SDS011;8250;52.426;9.450;2022-07-01T06:45:16;7.25;;;6.18;;
16284;SDS011;8250;52.426;9.450;2022-07-01T06:47:43;6.95;;;5.70;;
16284;SDS011;8250;52.426;9.450;2022-07-01T06:50:10;7.05;;;5.80;;
16284;SDS011;8250;52.426;9.450;2022-07-01T06:52:37;7.43;;;5.75;;
16284;SDS011;8250;52.426;9.450;2022-07-01T06:55:05;8.10;;;5.85;;
16284;SDS011;8250;52.426;9.450;2022-07-01T06:57:33;6.90;;;5.80;;
16284;SDS011;8250;52.426;9.450;2022-07-01T07:00:00;9.05;;;6.32;;
16284;SDS011;8250;52.426;9.450;2022-07-01T07:02:28;7.65;;;6.60;;
16284;SDS011;8250;52.426;9.450;2022-07-01T07:04:56;8.57;;;6.72;;
16284;SDS011;8250;52.426;9.450;2022-07-01T07:07:23;8.10;;;6.35;;
16284;SDS011;8250;52.426;9.450;2022-07-01T07:09:51;8.10;;;6.60;;
16284;SDS011;8250;52.426;9.450;2022-07-01T07:12:19;8.30;;;6.97;;
16284;SDS011;8250;52.426;9.450;2022-07-01T07:14:46;7.75;;;6.32;;
16284;SDS011;8250;52.426;9.450;2022-07-01T07:17:13;8.55;;;7.03;;
16284;SDS011;8250;52.426;9.450;2022-07-01T07:19:40;8.35;;;6.20;;
16284;SDS011;8250;52.426;9.450;2022-07-01T07:22:06;10.50;;;6.13;;
16284;SDS011;8250;52.426;9.450;2022-07-01T07:24:33;7.93;;;6.43;;
16284;SDS011;8250;52.426;9.450;2022-07-01T07:27:00;8.50;;;7.18;;
16284;SDS011;8250;52.426;9.450;2022-07-01T07:29:29;10.00;;;8.32;;
16284;SDS011;8250;52.426;9.450;2022-07-01T07:31:56;9.40;;;7.88;;
16284;SDS011;8250;52.426;9.450;2022-07-01T07:34:23;9.40;;;7.47;;
16284;SDS011;8250;52.426;9.450;2022-07-01T07:36:50;7.82;;;6.95;;
16284;SDS011;8250;52.426;9.450;2022-07-01T07:39:17;9.55;;;8.02;;
16284;SDS011;8250;52.426;9.450;2022-07-01T07:41:44;12.30;;;9.18;;
16284;SDS011;8250;52.426;9.450;2022-07-01T07:44:10;13.02;;;8.43;;
16284;SDS011;8250;52.426;9.450;2022-07-01T07:46:39;9.13;;;7.63;;
16284;SDS011;8250;52.426;9.450;2022-07-01T07:49:06;10.30;;;8.60;;
16284;SDS011;8250;52.426;9.450;2022-07-01T07:51:33;9.60;;;7.10;;
16284;SDS011;8250;52.426;9.450;2022-07-01T07:54:00;7.35;;;6.65;;
16284;SDS011;8250;52.426;9.450;2022-07-01T07:56:28;9.40;;;6.82;;
16284;SDS011;8250;52.426;9.450;2022-07-01T07:58:55;8.52;;;6.97;;
16284;SDS011;8250;52.426;9.450;2022-07-01T08:01:22;9.77;;;7.75;;
16284;SDS011;8250;52.426;9.450;2022-07-01T08:03:50;9.77;;;7.78;;
16284;SDS011;8250;52.426;9.450;2022-07-01T08:06:17;7.88;;;6.65;;
16284;SDS011;8250;52.426;9.450;2022-07-01T08:08:44;7.07;;;6.32;;
16284;SDS011;8250;52.426;9.450;2022-07-01T08:11:11;7.88;;;7.03;;
16284;SDS011;8250;52.426;9.450;2022-07-01T08:13:38;7.80;;;7.00;;
16284;SDS011;8250;52.426;9.450;2022-07-01T08:16:05;9.27;;;8.05;;
16284;SDS011;8250;52.426;9.450;2022-07-01T08:18:33;6.53;;;5.82;;
16284;SDS011;8250;52.426;9.450;2022-07-01T08:21:01;9.35;;;8.20;;
16284;SDS011;8250;52.426;9.450;2022-07-01T08:23:28;9.43;;;7.05;;
16284;SDS011;8250;52.426;9.450;2022-07-01T08:25:56;6.55;;;5.82;;
16284;SDS011;8250;52.426;9.450;2022-07-01T08:28:22;9.07;;;7.30;;
16284;SDS011;8250;52.426;9.450;2022-07-01T08:30:49;8.15;;;6.95;;
16284;SDS011;8250;52.426;9.450;2022-07-01T08:33:16;10.15;;;7.93;;
16284;SDS011;8250;52.426;9.450;2022-07-01T08:35:43;7.70;;;6.63;;
16284;SDS011;8250;52.426;9.450;2022-07-01T08:38:11;9.93;;;7.70;;
16284;SDS011;8250;52.426;9.450;2022-07-01T08:40:38;12.05;;;9.88;;
16284;SDS011;8250;52.426;9.450;2022-07-01T08:43:07;10.07;;;8.50;;
16284;SDS011;8250;52.426;9.450;2022-07-01T08:45:34;12.75;;;10.35;;
16284;SDS011;8250;52.426;9.450;2022-07-01T08:48:02;12.65;;;10.48;;
16284;SDS011;8250;52.426;9.450;2022-07-01T08:50:31;12.35;;;9.35;;
16284;SDS011;8250;52.426;9.450;2022-07-01T08:53:00;13.63;;;10.45;;
16284;SDS011;8250;52.426;9.450;2022-07-01T08:55:28;15.13;;;12.00;;
16284;SDS011;8250;52.426;9.450;2022-07-01T08:57:56;13.10;;;10.00;;
16284;SDS011;8250;52.426;9.450;2022-07-01T09:00:28;13.80;;;11.68;;
16284;SDS011;8250;52.426;9.450;2022-07-01T09:02:57;14.05;;;10.75;;
16284;SDS011;8250;52.426;9.450;2022-07-01T09:05:25;13.70;;;11.10;;
16284;SDS011;8250;52.426;9.450;2022-07-01T09:07:55;16.40;;;11.82;;
16284;SDS011;8250;52.426;9.450;2022-07-01T09:10:23;14.77;;;11.23;;
16284;SDS011;8250;52.426;9.450;2022-07-01T09:12:52;16.75;;;12.07;;
16284;SDS011;8250;52.426;9.450;2022-07-01T09:15:20;16.00;;;11.43;;
16284;SDS011;8250;52.426;9.450;2022-07-01T09:17:52;13.80;;;11.45;;
16284;SDS011;8250;52.426;9.450;2022-07-01T09:20:23;14.10;;;11.00;;
16284;SDS011;8250;52.426;9.450;2022-07-01T09:22:58;14.35;;;10.60;;
16284;SDS011;8250;52.426;9.450;2022-07-01T09:25:27;13.05;;;9.32;;
16284;SDS011;8250;52.426;9.450;2022-07-01T09:28:06;13.90;;;10.05;;
16284;SDS011;8250;52.426;9.450;2022-07-01T09:30:34;14.52;;;10.00;;
16284;SDS011;8250;52.426;9.450;2022-07-01T09:33:09;11.55;;;9.52;;
16284;SDS011;8250;52.426;9.450;2022-07-01T09:35:40;14.02;;;10.40;;
16284;SDS011;8250;52.426;9.450;2022-07-01T09:38:10;12.52;;;9.07;;
16284;SDS011;8250;52.426;9.450;2022-07-01T09:40:48;9.98;;;8.23;;
16284;SDS011;8250;52.426;9.450;2022-07-01T09:43:21;11.32;;;9.00;;
16284;SDS011;8250;52.426;9.450;2022-07-01T09:45:56;10.10;;;8.85;;
16284;SDS011;8250;52.426;9.450;2022-07-01T09:48:27;11.80;;;9.50;;
16284;SDS011;8250;52.426;9.450;2022-07-01T09:51:09;12.65;;;9.25;;
16284;SDS011;8250;52.426;9.450;2022-07-01T09:53:37;8.55;;;7.50;;
16284;SDS011;8250;52.426;9.450;2022-07-01T09:56:04;8.95;;;7.22;;
16284;SDS011;8250;52.426;9.450;2022-07-01T09:58:32;9.63;;;7.93;;
16284;SDS011;8250;52.426;9.450;2022-07-01T10:01:03;12.70;;;9.52;;
16284;SDS011;8250;52.426;9.450;2022-07-01T10:03:30;12.50;;;9.57;;
16284;SDS011;8250;52.426;9.450;2022-07-01T10:06:03;13.23;;;8.63;;
16284;SDS011;8250;52.426;9.450;2022-07-01T10:08:50;12.25;;;10.15;;
16284;SDS011;8250;52.426;9.450;2022-07-01T10:11:34;12.07;;;8.43;;
16284;SDS011;8250;52.426;9.450;2022-07-01T10:14:22;8.18;;;7.00;;
16284;SDS011;8250;52.426;9.450;2022-07-01T10:16:49;13.52;;;10.43;;
16284;SDS011;8250;52.426;9.450;2022-07-01T10:19:29;9.88;;;8.30;;
16284;SDS011;8250;52.426;9.450;2022-07-01T10:21:59;9.05;;;7.20;;
16284;SDS011;8250;52.426;9.450;2022-07-01T10:24:46;11.65;;;8.73;;
16284;SDS011;8250;52.426;9.450;2022-07-01T10:27:19;15.60;;;11.32;;
16284;SDS011;8250;52.426;9.450;2022-07-01T10:29:48;12.55;;;9.48;;
16284;SDS011;8250;52.426;9.450;2022-07-01T10:32:25;15.02;;;11.15;;
16284;SDS011;8250;52.426;9.450;2022-07-01T10:35:03;14.82;;;9.95;;
16284;SDS011;8250;52.426;9.450;2022-07-01T10:37:30;13.82;;;10.18;;
16284;SDS011;8250;52.426;9.450;2022-07-01T10:39:57;14.95;;;10.75;;
16284;SDS011;8250;52.426;9.450;2022-07-01T10:42:29;11.98;;;9.15;;
16284;SDS011;8250;52.426;9.450;2022-07-01T10:45:08;12.18;;;9.27;;
16284;SDS011;8250;52.426;9.450;2022-07-01T10:47:37;12.13;;;8.30;;
16284;SDS011;8250;52.426;9.450;2022-07-01T10:50:06;12.00;;;8.65;;
16284;SDS011;8250;52.426;9.450;2022-07-01T10:52:37;12.15;;;9.15;;
16284;SDS011;8250;52.426;9.450;2022-07-01T10:55:05;14.07;;;10.43;;
16284;SDS011;8250;52.426;9.450;2022-07-01T10:57:37;12.60;;;9.15;;
16284;SDS011;8250;52.426;9.450;2022-07-01T11:00:26;11.52;;;8.75;;
16284;SDS011;8250;52.426;9.450;2022-07-01T11:03:04;9.25;;;7.57;;
16284;SDS011;8250;52.426;9.450;2022-07-01T11:05:40;10.40;;;7.90;;
16284;SDS011;8250;52.426;9.450;2022-07-01T11:08:08;9.25;;;7.95;;
16284;SDS011;8250;52.426;9.450;2022-07-01T11:10:37;11.27;;;8.48;;
16284;SDS011;8250;52.426;9.450;2022-07-01T11:13:04;7.50;;;6.47;;
16284;SDS011;8250;52.426;9.450;2022-07-01T11:15:33;13.07;;;9.15;;
16284;SDS011;8250;52.426;9.450;2022-07-01T11:18:00;8.10;;;7.10;;
16284;SDS011;8250;52.426;9.450;2022-07-01T11:20:29;8.52;;;6.18;;
16284;SDS011;8250;52.426;9.450;2022-07-01T11:22:57;7.97;;;6.25;;
16284;SDS011;8250;52.426;9.450;2022-07-01T11:25:24;9.38;;;6.53;;
16284;SDS011;8250;52.426;9.450;2022-07-01T11:27:52;8.13;;;6.53;;
16284;SDS011;8250;52.426;9.450;2022-07-01T11:30:19;9.15;;;7.32;;
16284;SDS011;8250;52.426;9.450;2022-07-01T11:32:50;8.98;;;6.93;;
16284;SDS011;8250;52.426;9.450;2022-07-01T11:35:18;9.80;;;7.72;;
16284;SDS011;8250;52.426;9.450;2022-07-01T11:38:04;8.57;;;6.72;;
16284;SDS011;8250;52.426;9.450;2022-07-01T11:40:49;8.77;;;7.00;;
16284;SDS011;8250;52.426;9.450;2022-07-01T11:43:20;6.13;;;5.47;;
16284;SDS011;8250;52.426;9.450;2022-07-01T11:45:48;7.55;;;5.97;;
16284;SDS011;8250;52.426;9.450;2022-07-01T11:48:30;5.68;;;4.60;;
16284;SDS011;8250;52.426;9.450;2022-07-01T11:51:05;5.50;;;4.60;;
16284;SDS011;8250;52.426;9.450;2022-07-01T11:53:34;5.18;;;4.00;;
16284;SDS011;8250;52.426;9.450;2022-07-01T11:56:01;9.95;;;4.60;;
16284;SDS011;8250;52.426;9.450;2022-07-01T11:58:44;5.10;;;4.32;;
16284;SDS011;8250;52.426;9.450;2022-07-01T12:01:19;5.55;;;3.75;;
16284;SDS011;8250;52.426;9.450;2022-07-01T12:03:51;4.10;;;3.60;;
16284;SDS011;8250;52.426;9.450;2022-07-01T12:06:19;4.22;;;3.83;;
16284;SDS011;8250;52.426;9.450;2022-07-01T12:08:48;5.30;;;3.75;;
16284;SDS011;8250;52.426;9.450;2022-07-01T12:11:16;4.35;;;3.45;;
16284;SDS011;8250;52.426;9.450;2022-07-01T12:13:44;4.13;;;3.72;;
16284;SDS011;8250;52.426;9.450;2022-07-01T12:16:12;6.40;;;4.22;;
16284;SDS011;8250;52.426;9.450;2022-07-01T12:18:39;4.90;;;3.45;;
16284;SDS011;8250;52.426;9.450;2022-07-01T12:21:18;6.05;;;4.03;;
16284;SDS011;8250;52.426;9.450;2022-07-01T12:26:35;4.38;;;3.50;;
16284;SDS011;8250;52.426;9.450;2022-07-01T12:29:14;3.65;;;3.35;;
16284;SDS011;8250;52.426;9.450;2022-07-01T12:31:42;4.68;;;3.65;;
16284;SDS011;8250;52.426;9.450;2022-07-01T12:34:10;6.25;;;3.42;;
16284;SDS011;8250;52.426;9.450;2022-07-01T12:36:37;4.18;;;3.35;;
16284;SDS011;8250;52.426;9.450;2022-07-01T12:39:13;4.57;;;3.03;;
16284;SDS011;8250;52.426;9.450;2022-07-01T12:41:43;3.40;;;3.00;;
16284;SDS011;8250;52.426;9.450;2022-07-01T12:44:20;3.45;;;2.97;;
16284;SDS011;8250;52.426;9.450;2022-07-01T12:46:48;3.47;;;2.60;;
16284;SDS011;8250;52.426;9.450;2022-07-01T12:49:19;4.25;;;3.08;;
16284;SDS011;8250;52.426;9.450;2022-07-01T12:51:47;4.82;;;3.30;;
16284;SDS011;8250;52.426;9.450;2022-07-01T12:54:28;3.38;;;3.08;;
16284;SDS011;8250;52.426;9.450;2022-07-01T12:56:56;4.00;;;3.20;;
16284;SDS011;8250;52.426;9.450;2022-07-01T12:59:23;4.30;;;3.78;;
16284;SDS011;8250;52.426;9.450;2022-07-01T13:01:50;4.50;;;3.88;;
16284;SDS011;8250;52.426;9.450;2022-07-01T13:04:24;4.25;;;3.45;;
16284;SDS011;8250;52.426;9.450;2022-07-01T13:06:51;3.65;;;3.30;;
16284;SDS011;8250;52.426;9.450;2022-07-01T13:09:18;5.68;;;3.72;;
16284;SDS011;8250;52.426;9.450;2022-07-01T13:11:45;3.40;;;2.80;;
16284;SDS011;8250;52.426;9.450;2022-07-01T13:14:12;3.42;;;2.90;;
16284;SDS011;8250;52.426;9.450;2022-07-01T13:16:39;6.75;;;4.22;;
16284;SDS011;8250;52.426;9.450;2022-07-01T13:19:06;4.45;;;3.30;;
16284;SDS011;8250;52.426;9.450;2022-07-01T13:21:35;3.10;;;2.80;;
16284;SDS011;8250;52.426;9.450;2022-07-01T13:24:02;2.75;;;2.50;;
16284;SDS011;8250;52.426;9.450;2022-07-01T13:26:29;4.63;;;3.80;;
16284;SDS011;8250;52.426;9.450;2022-07-01T13:28:56;3.47;;;2.88;;
16284;SDS011;8250;52.426;9.450;2022-07-01T13:31:23;3.15;;;2.85;;
16284;SDS011;8250;52.426;9.450;2022-07-01T13:33:50;3.88;;;2.78;;
16284;SDS011;8250;52.426;9.450;2022-07-01T13:36:17;2.63;;;2.42;;
16284;SDS011;8250;52.426;9.450;2022-07-01T13:38:45;4.50;;;3.65;;
16284;SDS011;8250;52.426;9.450;2022-07-01T13:41:14;3.15;;;2.70;;
16284;SDS011;8250;52.426;9.450;2022-07-01T13:43:40;4.35;;;2.58;;
16284;SDS011;8250;52.426;9.450;2022-07-01T13:46:09;3.35;;;2.90;;
16284;SDS011;8250;52.426;9.450;2022-07-01T13:48:35;3.80;;;2.88;;
16284;SDS011;8250;52.426;9.450;2022-07-01T13:51:02;3.08;;;2.63;;
16284;SDS011;8250;52.426;9.450;2022-07-01T13:53:29;3.10;;;2.63;;
16284;SDS011;8250;52.426;9.450;2022-07-01T13:55:57;3.33;;;2.90;;
16284;SDS011;8250;52.426;9.450;2022-07-01T13:58:24;4.88;;;3.17;;
16284;SDS011;8250;52.426;9.450;2022-07-01T14:00:51;2.85;;;2.60;;
16284;SDS011;8250;52.426;9.450;2022-07-01T14:03:18;4.57;;;2.70;;
16284;SDS011;8250;52.426;9.450;2022-07-01T14:05:45;3.28;;;2.85;;
16284;SDS011;8250;52.426;9.450;2022-07-01T14:08:12;3.08;;;2.70;;
16284;SDS011;8250;52.426;9.450;2022-07-01T14:10:40;3.42;;;3.03;;
16284;SDS011;8250;52.426;9.450;2022-07-01T14:13:08;4.40;;;3.03;;
16284;SDS011;8250;52.426;9.450;2022-07-01T14:15:35;3.30;;;2.92;;
16284;SDS011;8250;52.426;9.450;2022-07-01T14:18:02;4.60;;;3.58;;
16284;SDS011;8250;52.426;9.450;2022-07-01T14:20:30;4.57;;;3.25;;
16284;SDS011;8250;52.426;9.450;2022-07-01T14:22:57;3.05;;;2.75;;
16284;SDS011;8250;52.426;9.450;2022-07-01T14:25:24;2.80;;;2.53;;
16284;SDS011;8250;52.426;9.450;2022-07-01T14:27:50;3.15;;;2.85;;
16284;SDS011;8250;52.426;9.450;2022-07-01T14:30:19;4.65;;;2.83;;
16284;SDS011;8250;52.426;9.450;2022-07-01T14:32:46;5.43;;;2.72;;
16284;SDS011;8250;52.426;9.450;2022-07-01T14:35:12;2.90;;;2.40;;
16284;SDS011;8250;52.426;9.450;2022-07-01T14:37:39;3.35;;;2.80;;
16284;SDS011;8250;52.426;9.450;2022-07-01T14:40:08;2.42;;;2.22;;
16284;SDS011;8250;52.426;9.450;2022-07-01T14:42:37;3.47;;;2.80;;
16284;SDS011;8250;52.426;9.450;2022-07-01T14:45:05;2.80;;;2.42;;
16284;SDS011;8250;52.426;9.450;2022-07-01T14:47:34;3.90;;;2.42;;
16284;SDS011;8250;52.426;9.450;2022-07-01T14:50:01;3.00;;;2.65;;
16284;SDS011;8250;52.426;9.450;2022-07-01T14:52:28;4.03;;;2.63;;
16284;SDS011;8250;52.426;9.450;2022-07-01T14:54:55;2.85;;;2.53;;
16284;SDS011;8250;52.426;9.450;2022-07-01T14:57:22;3.05;;;2.15;;
16284;SDS011;8250;52.426;9.450;2022-07-01T14:59:49;2.67;;;2.40;;
16284;SDS011;8250;52.426;9.450;2022-07-01T15:02:17;2.33;;;2.00;;
16284;SDS011;8250;52.426;9.450;2022-07-01T15:04:46;4.95;;;3.20;;
16284;SDS011;8250;52.426;9.450;2022-07-01T15:07:13;4.00;;;2.33;;
16284;SDS011;8250;52.426;9.450;2022-07-01T15:09:40;3.53;;;2.47;;